»·PEaware :: TPX573 KLAS-KONT

TPX573 :: KLAS-KONT

FLIGHT INFORMATION

Flight Status: Arrived
Operator: ATP Experience
More flights by this operator :: More flights under this callsign
Pilot: Joe C. (3077)
Aircraft: BOEING 737-800
(B738)
More flights by this aircraft type
Origin: KLAS McCarran Intl
United States
Destination: KONT Ontario Intl
United States
More flights between these airports :: More routes between these airports
Route: +BOACH8 HEC ZIGGY7
File this flight plan on PilotEdge
Remarks:
Altitude:
(Current/Filed)
24,000ft
Speed:
(Current/Filed)
440kts
Departed: 11-Oct-18 05:28 PM
Arrived: 11-Oct-18 06:08 PM
Distance/Time
Traveled:
171nm/0:40
Distance/Time
To Go:
Arrived

Flight Plot

Page will automatically refresh every two minutes.

Flight plan parsing failed; only flown route is shown


Map Options




Map Legend


Flown Route
Filed Route
Departure Airport
Arrival Airport
Navaid (VOR, NDB)
Fix

Horizontal Profiles

Position Reports

Time Latitude Longitude Heading Altitude Ground
Speed
11-Oct-18 16:59 36.080886 -115.138517 315 2067ft 0kts
11-Oct-18 17:00 36.080886 -115.138517 315 2067ft 0kts
11-Oct-18 17:01 36.080886 -115.138517 315 2067ft 0kts
11-Oct-18 17:02 36.080886 -115.138517 315 2067ft 0kts
11-Oct-18 17:03 36.080886 -115.138517 315 2067ft 0kts
11-Oct-18 17:04 36.080886 -115.138517 315 2067ft 0kts
11-Oct-18 17:05 36.080886 -115.138517 315 2067ft 0kts
11-Oct-18 17:06 36.080886 -115.138517 315 2067ft 0kts
11-Oct-18 17:07 36.080886 -115.138517 315 2067ft 0kts
11-Oct-18 17:08 36.080886 -115.138517 315 2067ft 0kts
11-Oct-18 17:09 36.080886 -115.138517 315 2067ft 0kts
11-Oct-18 17:10 36.080886 -115.138517 315 2067ft 0kts
11-Oct-18 17:11 36.080886 -115.138517 315 2067ft 0kts
11-Oct-18 17:12 36.080886 -115.138517 315 2067ft 0kts
11-Oct-18 17:13 36.080886 -115.138517 315 2067ft 0kts
11-Oct-18 17:14 36.080886 -115.138517 315 2067ft 0kts
11-Oct-18 17:15 36.080886 -115.138517 315 2067ft 0kts
11-Oct-18 17:16 36.080886 -115.138517 315 2067ft 0kts
11-Oct-18 17:17 36.080886 -115.138517 315 2067ft 0kts
11-Oct-18 17:18 36.080886 -115.138517 315 2067ft 0kts
11-Oct-18 17:19 36.080517 -115.138088 338 2066ft 2kts
11-Oct-18 17:20 36.080124 -115.138091 315 2067ft 1kts
11-Oct-18 17:21 36.080114 -115.137891 244 2067ft 0kts
11-Oct-18 17:22 36.080110 -115.137901 244 2067ft 1kts
11-Oct-18 17:23 36.079303 -115.138973 222 2073ft 9kts
11-Oct-18 17:24 36.078284 -115.141004 264 2082ft 8kts
11-Oct-18 17:25 36.077605 -115.144296 273 2093ft 7kts
11-Oct-18 17:26 36.077863 -115.147585 275 2103ft 15kts
11-Oct-18 17:27 36.078053 -115.154221 269 2128ft 17kts
11-Oct-18 17:28 36.078056 -115.159834 270 2147ft 12kts
11-Oct-18 17:29 36.077183 -115.161345 184 2155ft 9kts
11-Oct-18 17:30 36.076349 -115.150422 89 2116ft 126kts
11-Oct-18 17:31 36.077100 -115.094436 92 3663ft 204kts
11-Oct-18 17:32 36.075810 -115.010356 91 5831ft 269kts
11-Oct-18 17:33 36.041123 -114.936044 154 8735ft 283kts
11-Oct-18 17:34 35.969766 -114.912882 190 10900ft 314kts
11-Oct-18 17:35 35.904641 -114.968557 224 12880ft 346kts
11-Oct-18 17:36 35.840923 -115.048483 223 15964ft 357kts
11-Oct-18 17:37 35.774880 -115.143055 227 18860ft 378kts
11-Oct-18 17:38 35.708393 -115.246656 226 21680ft 391kts
11-Oct-18 17:39 35.638590 -115.347846 223 23339ft 390kts
11-Oct-18 17:40 35.565814 -115.445780 223 23918ft 390kts
11-Oct-18 17:41 35.492687 -115.543917 223 23918ft 390kts
11-Oct-18 17:42 35.419575 -115.641760 223 23916ft 390kts
11-Oct-18 17:43 35.347044 -115.738451 222 23914ft 390kts
11-Oct-18 17:44 35.286562 -115.818851 222 23913ft 392kts
11-Oct-18 17:45 35.198152 -115.935967 222 23905ft 404kts
11-Oct-18 17:46 35.134439 -116.020193 222 23904ft 404kts
11-Oct-18 17:47 35.048655 -116.133464 222 23903ft 375kts
11-Oct-18 17:48 34.990073 -116.210522 222 23903ft 369kts
11-Oct-18 17:49 34.909565 -116.316155 222 23892ft 361kts
11-Oct-18 17:50 34.853688 -116.389258 223 23890ft 358kts
11-Oct-18 17:51 34.771132 -116.495692 221 19688ft 380kts
11-Oct-18 17:52 34.696660 -116.587277 222 16271ft 380kts
11-Oct-18 17:53 34.637013 -116.660458 223 14414ft 360kts
11-Oct-18 17:54 34.557798 -116.757349 224 12101ft 338kts
11-Oct-18 17:55 34.503092 -116.824132 224 12018ft 337kts
11-Oct-18 17:56 34.437367 -116.904217 224 12017ft 337kts
11-Oct-18 17:57 34.371228 -116.984622 224 12009ft 337kts
11-Oct-18 17:58 34.305815 -117.063972 224 11987ft 322kts
11-Oct-18 17:59 34.248773 -117.133065 224 11991ft 268kts
11-Oct-18 18:00 34.189133 -117.179199 192 11155ft 260kts
11-Oct-18 18:01 34.122229 -117.177339 157 9777ft 247kts
11-Oct-18 18:02 34.060878 -117.145750 167 8510ft 238kts
11-Oct-18 18:03 34.021596 -117.194549 256 7175ft 234kts
11-Oct-18 18:04 34.024324 -117.267622 291 5970ft 232kts
11-Oct-18 18:05 34.037485 -117.351430 276 4606ft 225kts
11-Oct-18 18:06 34.048936 -117.411715 282 3776ft 214kts
11-Oct-18 18:07 34.061434 -117.471896 283 3193ft 165kts
11-Oct-18 18:08 34.057230 -117.520783 261 1979ft 144kts
11-Oct-18 18:09 34.056869 -117.569716 270 1208ft 147kts
11-Oct-18 18:10 34.057186 -117.599603 332 932ft 9kts
11-Oct-18 18:11 34.059743 -117.599897 323 939ft 1kts
11-Oct-18 18:12 34.059991 -117.599849 36 939ft 0kts
11-Oct-18 18:13 34.059991 -117.599849 36 939ft 0kts
11-Oct-18 18:14 34.059991 -117.599849 36 939ft 0kts

Navigation Log

Ident Type
Flight plan parsing failed, navigation log unavailable